createdAt,value
2019-03-03T00:00:50.053Z,6.60
2019-03-03T00:03:16.612Z,6.60
2019-03-03T00:05:43.174Z,6.60
2019-03-03T00:08:09.690Z,6.60
2019-03-03T00:10:36.243Z,6.60
2019-03-03T00:13:02.801Z,6.60
2019-03-03T00:15:29.433Z,6.60
2019-03-03T00:17:55.988Z,6.60
2019-03-03T00:20:22.510Z,6.70
2019-03-03T00:22:49.066Z,6.70
2019-03-03T00:25:15.685Z,6.80
2019-03-03T00:27:42.241Z,6.70
2019-03-03T00:30:10.557Z,6.70
2019-03-03T00:32:37.121Z,6.70
2019-03-03T00:35:04.277Z,6.70
2019-03-03T00:37:32.592Z,6.70
2019-03-03T00:40:00.980Z,6.80
2019-03-03T00:42:35.169Z,6.80
2019-03-03T00:45:12.669Z,6.80
2019-03-03T00:47:43.501Z,6.80
2019-03-03T00:50:14.875Z,6.80
2019-03-03T00:52:43.228Z,6.80
2019-03-03T00:55:11.544Z,6.80
2019-03-03T00:57:45.752Z,6.80
2019-03-03T01:00:18.985Z,6.80
2019-03-03T01:02:47.337Z,6.80
2019-03-03T01:05:15.955Z,6.80
2019-03-03T01:07:56.513Z,6.80
2019-03-03T01:10:33.752Z,6.80
2019-03-03T01:13:18.537Z,6.70
2019-03-03T01:16:03.481Z,6.70
2019-03-03T01:18:37.378Z,6.70
2019-03-03T01:21:11.292Z,6.60
2019-03-03T01:23:48.561Z,6.60
2019-03-03T01:26:15.118Z,6.70
2019-03-03T01:28:41.632Z,6.70
2019-03-03T01:31:08.197Z,6.60
2019-03-03T01:33:34.753Z,6.60
2019-03-03T01:36:01.265Z,6.60
2019-03-03T01:38:27.824Z,6.60
2019-03-03T01:40:54.336Z,6.70
2019-03-03T01:43:20.996Z,6.60
2019-03-03T01:45:48.213Z,6.70
2019-03-03T01:48:14.768Z,6.70
2019-03-03T01:50:41.293Z,6.70
2019-03-03T01:53:07.844Z,6.70
2019-03-03T01:55:34.369Z,6.70
2019-03-03T01:58:00.916Z,6.70
2019-03-03T02:00:27.475Z,6.70
2019-03-03T02:02:54.693Z,6.70
2019-03-03T02:05:21.248Z,6.80
2019-03-03T02:07:47.809Z,6.80
2019-03-03T02:10:15.321Z,6.80
2019-03-03T02:12:41.876Z,6.80
2019-03-03T02:15:09.933Z,6.80
2019-03-03T02:17:36.450Z,6.80
2019-03-03T02:20:04.309Z,6.80
2019-03-03T02:22:30.868Z,6.80
2019-03-03T02:24:57.380Z,6.80
2019-03-03T02:27:23.932Z,6.90
2019-03-03T02:29:50.488Z,6.90
2019-03-03T02:32:17.010Z,6.90
2019-03-03T02:34:43.564Z,6.90
2019-03-03T02:37:10.114Z,6.90
2019-03-03T02:39:36.631Z,6.90
2019-03-03T02:42:03.181Z,6.90
2019-03-03T02:44:29.744Z,6.90
2019-03-03T02:46:56.255Z,6.90
2019-03-03T02:49:22.809Z,6.90
2019-03-03T02:51:49.367Z,6.90
2019-03-03T02:54:15.890Z,6.90
2019-03-03T02:56:42.488Z,6.90
2019-03-03T02:59:09.042Z,6.90
2019-03-03T03:01:37.361Z,6.90
2019-03-03T03:04:03.916Z,6.80
2019-03-03T03:06:32.238Z,6.80
2019-03-03T03:09:09.761Z,6.80
2019-03-03T03:11:41.499Z,6.80
2019-03-03T03:14:25.179Z,6.80
2019-03-03T03:16:53.620Z,6.80
2019-03-03T03:19:30.772Z,6.90
2019-03-03T03:22:04.610Z,6.80
2019-03-03T03:24:35.985Z,6.80
2019-03-03T03:27:20.765Z,6.80
2019-03-03T03:30:06.800Z,6.80
2019-03-03T03:32:44.064Z,6.80
2019-03-03T03:35:12.422Z,6.70
2019-03-03T03:37:40.859Z,6.70
2019-03-03T03:40:16.352Z,6.70
2019-03-03T03:42:56.308Z,6.80
2019-03-03T03:45:24.642Z,6.80
2019-03-03T03:47:58.607Z,6.80
2019-03-03T03:50:32.474Z,6.80
2019-03-03T03:53:15.986Z,6.80
2019-03-03T03:55:53.281Z,6.70
2019-03-03T03:58:27.526Z,6.70
2019-03-03T04:01:13.901Z,6.70
2019-03-03T04:03:42.262Z,6.70
2019-03-03T04:06:13.202Z,6.80
2019-03-03T04:08:41.555Z,6.80
2019-03-03T04:11:09.883Z,6.70
2019-03-03T04:13:47.139Z,6.70
2019-03-03T04:16:18.000Z,6.70
2019-03-03T04:18:52.133Z,6.80
2019-03-03T04:21:29.238Z,6.80
2019-03-03T04:24:00.100Z,6.80
2019-03-03T04:26:28.449Z,6.80
2019-03-03T04:29:00.472Z,6.70
2019-03-03T04:31:28.827Z,6.70
2019-03-03T04:33:57.154Z,6.70
2019-03-03T04:36:28.009Z,6.80
2019-03-03T04:39:14.020Z,6.70
2019-03-03T04:41:42.380Z,6.70
2019-03-03T04:44:19.652Z,6.70
2019-03-03T04:46:51.000Z,6.70
2019-03-03T04:49:31.260Z,6.70
2019-03-03T04:52:05.473Z,6.70
2019-03-03T04:54:33.832Z,6.70
2019-03-03T04:57:02.184Z,6.80
2019-03-03T04:59:33.328Z,6.80
2019-03-03T05:02:04.405Z,6.80
2019-03-03T05:04:38.348Z,6.80
2019-03-03T05:07:09.275Z,6.80
2019-03-03T05:09:55.292Z,6.80
2019-03-03T05:12:23.643Z,6.70
2019-03-03T05:14:51.960Z,6.70
2019-03-03T05:17:23.131Z,6.70
2019-03-03T05:19:51.407Z,6.80
2019-03-03T05:22:17.956Z,6.80
2019-03-03T05:24:44.481Z,6.70
2019-03-03T05:27:11.032Z,6.60
2019-03-03T05:29:37.548Z,6.60
2019-03-03T05:32:04.100Z,6.60
2019-03-03T05:34:30.657Z,6.60
2019-03-03T05:36:57.172Z,6.60
2019-03-03T05:39:23.728Z,6.60
2019-03-03T05:41:50.244Z,6.60
2019-03-03T05:44:16.801Z,6.60
2019-03-03T05:46:43.356Z,6.60
2019-03-03T05:49:09.867Z,6.60
2019-03-03T05:51:36.425Z,6.70
2019-03-03T05:54:02.977Z,6.60
2019-03-03T05:56:29.532Z,6.60
2019-03-03T05:58:56.119Z,6.60
2019-03-03T06:01:22.635Z,6.60
2019-03-03T06:03:49.188Z,6.70
2019-03-03T06:06:15.708Z,6.70
2019-03-03T06:08:42.275Z,6.70
2019-03-03T06:11:08.820Z,6.70
2019-03-03T06:13:35.336Z,6.80
2019-03-03T06:16:01.892Z,6.90
2019-03-03T06:18:28.408Z,6.90
2019-03-03T06:20:55.364Z,6.90
2019-03-03T06:23:21.920Z,7.00
2019-03-03T06:25:48.440Z,6.90
2019-03-03T06:28:14.999Z,7.00
2019-03-03T06:30:41.516Z,7.00
2019-03-03T06:33:08.064Z,7.00
2019-03-03T06:35:34.585Z,7.00
2019-03-03T06:38:01.141Z,7.10
2019-03-03T06:40:27.656Z,7.30
2019-03-03T06:42:54.214Z,7.40
2019-03-03T06:45:20.733Z,7.50
2019-03-03T06:47:47.280Z,7.60
2019-03-03T06:50:13.806Z,7.60
2019-03-03T06:52:40.357Z,7.80
2019-03-03T06:55:07.213Z,8.00
2019-03-03T06:57:33.869Z,8.00
2019-03-03T07:00:00.432Z,8.10
2019-03-03T07:02:26.957Z,8.20
2019-03-03T07:04:53.508Z,8.40
2019-03-03T07:07:20.033Z,8.50
2019-03-03T07:09:46.588Z,8.60
2019-03-03T07:12:13.146Z,8.50
2019-03-03T07:14:39.623Z,8.50
2019-03-03T07:17:06.176Z,8.30
2019-03-03T07:19:32.845Z,8.10
2019-03-03T07:21:59.367Z,8.10
2019-03-03T07:24:25.920Z,8.10
2019-03-03T07:26:52.431Z,8.20
2019-03-03T07:29:18.990Z,8.40
2019-03-03T07:31:45.552Z,8.40
2019-03-03T07:34:12.068Z,8.30
2019-03-03T07:36:38.632Z,8.20
2019-03-03T07:39:06.949Z,8.20
2019-03-03T07:41:33.500Z,8.30
2019-03-03T07:44:00.060Z,8.40
2019-03-03T07:46:26.589Z,8.40
2019-03-03T07:48:53.145Z,8.50
2019-03-03T07:51:19.672Z,8.50
2019-03-03T07:53:46.233Z,8.30
2019-03-03T07:56:12.911Z,8.30
2019-03-03T07:58:39.504Z,8.50
2019-03-03T08:01:06.064Z,8.50
2019-03-03T08:03:32.592Z,8.60
2019-03-03T08:05:59.140Z,8.60
2019-03-03T08:08:25.904Z,8.70
2019-03-03T08:10:52.532Z,8.70
2019-03-03T08:13:19.181Z,8.70
2019-03-03T08:15:45.777Z,8.70
2019-03-03T08:18:12.441Z,8.80
2019-03-03T08:20:39.049Z,8.90
2019-03-03T08:23:05.837Z,9.00
2019-03-03T08:25:32.488Z,9.00
2019-03-03T08:27:59.099Z,9.00
2019-03-03T08:30:25.723Z,9.10
2019-03-03T08:32:52.317Z,9.30
2019-03-03T08:35:19.649Z,9.70
2019-03-03T08:37:46.232Z,10.00
2019-03-03T08:40:12.834Z,10.20
2019-03-03T08:42:43.896Z,10.40
2019-03-03T08:45:28.909Z,10.30
2019-03-03T08:47:57.429Z,10.30
2019-03-03T08:50:25.875Z,10.10
2019-03-03T08:52:57.298Z,10.10
2019-03-03T08:55:34.962Z,10.00
2019-03-03T08:58:09.576Z,10.10
2019-03-03T09:00:43.701Z,10.40
2019-03-03T09:03:20.962Z,10.50
2019-03-03T09:06:05.704Z,10.50
2019-03-03T09:08:52.329Z,10.60
2019-03-03T09:11:23.612Z,10.60
2019-03-03T09:13:55.007Z,10.60
2019-03-03T09:16:23.364Z,10.60
2019-03-03T09:18:52.104Z,10.60
2019-03-03T09:21:36.909Z,10.70
2019-03-03T09:24:22.008Z,10.70
2019-03-03T09:26:52.871Z,10.90
2019-03-03T09:29:35.848Z,11.00
2019-03-03T09:32:13.603Z,10.90
2019-03-03T09:34:44.728Z,11.00
2019-03-03T09:37:13.098Z,11.40
2019-03-03T09:39:41.493Z,11.50
2019-03-03T09:42:15.585Z,11.50
2019-03-03T09:44:46.957Z,11.60
2019-03-03T09:47:15.272Z,11.70
2019-03-03T09:49:43.633Z,11.90
2019-03-03T09:52:28.698Z,11.90
2019-03-03T09:55:15.224Z,11.90
2019-03-03T09:57:55.538Z,12.00
2019-03-03T10:00:23.933Z,12.00
2019-03-03T10:02:58.298Z,12.10
2019-03-03T10:05:26.655Z,12.30
2019-03-03T10:07:57.906Z,12.30
2019-03-03T10:10:29.175Z,12.30
2019-03-03T10:13:00.036Z,12.60
2019-03-03T10:15:28.356Z,12.80
2019-03-03T10:17:59.297Z,12.70
2019-03-03T10:20:27.660Z,12.70
2019-03-03T10:23:08.052Z,12.70
2019-03-03T10:25:48.444Z,12.80
2019-03-03T10:28:16.801Z,12.90
2019-03-03T10:30:57.353Z,13.00
2019-03-03T10:33:28.840Z,13.00
2019-03-03T10:35:57.196Z,12.90
2019-03-03T10:38:40.541Z,13.00
2019-03-03T10:41:24.011Z,13.20
2019-03-03T10:43:55.429Z,13.20
2019-03-03T10:46:38.916Z,13.10
2019-03-03T10:49:09.816Z,13.30
2019-03-03T10:51:56.161Z,13.40
2019-03-03T10:54:33.388Z,13.50
2019-03-03T10:57:18.076Z,13.60
2019-03-03T10:59:55.045Z,13.70
2019-03-03T11:02:22.389Z,13.90
2019-03-03T11:04:53.861Z,14.00
2019-03-03T11:07:22.216Z,14.00
2019-03-03T11:10:07.610Z,14.10
2019-03-03T11:12:41.984Z,14.10
2019-03-03T11:15:30.027Z,13.90
2019-03-03T11:18:07.172Z,13.60
2019-03-03T11:20:38.413Z,13.90
2019-03-03T11:23:06.728Z,13.80
2019-03-03T11:25:40.841Z,13.90
2019-03-03T11:28:23.540Z,14.00
2019-03-03T11:30:50.969Z,14.10
2019-03-03T11:33:22.541Z,14.30
2019-03-03T11:35:57.277Z,14.40
2019-03-03T11:38:28.156Z,14.50
2019-03-03T11:40:56.463Z,14.40
2019-03-03T11:43:30.680Z,14.60
2019-03-03T11:46:04.665Z,14.80
2019-03-03T11:48:49.428Z,14.80
2019-03-03T11:51:17.744Z,14.80
2019-03-03T11:53:46.105Z,14.70
2019-03-03T11:56:14.433Z,14.90
2019-03-03T11:58:54.904Z,14.60
2019-03-03T12:01:23.332Z,14.40
2019-03-03T12:03:54.336Z,14.40
2019-03-03T12:06:31.336Z,14.70
2019-03-03T12:09:15.984Z,14.80
2019-03-03T12:11:47.209Z,14.70
2019-03-03T12:14:18.573Z,14.50
2019-03-03T12:16:49.681Z,14.50
2019-03-03T12:19:20.636Z,14.30
2019-03-03T12:21:48.996Z,14.30
2019-03-03T12:24:35.400Z,14.20
2019-03-03T12:27:12.680Z,14.30
2019-03-03T12:29:43.794Z,14.50
2019-03-03T12:32:21.040Z,14.70
2019-03-03T12:35:01.125Z,14.70
2019-03-03T12:37:29.489Z,14.80
2019-03-03T12:40:06.679Z,14.50
2019-03-03T12:42:43.773Z,14.40
2019-03-03T12:45:18.141Z,14.20
2019-03-03T12:47:49.542Z,14.30
2019-03-03T12:50:35.832Z,14.40
2019-03-03T12:53:04.190Z,14.50
2019-03-03T12:55:35.645Z,14.80
2019-03-03T12:58:16.176Z,14.60
2019-03-03T13:01:01.232Z,14.50
2019-03-03T13:03:47.759Z,14.60
2019-03-03T13:06:24.124Z,14.60
2019-03-03T13:08:59.373Z,14.50
2019-03-03T13:11:36.706Z,14.60
2019-03-03T13:14:05.095Z,14.40
2019-03-03T13:16:36.402Z,14.50
2019-03-03T13:19:04.756Z,14.60
2019-03-03T13:21:33.112Z,14.60
2019-03-03T13:24:07.242Z,14.60
2019-03-03T13:26:38.131Z,14.60
2019-03-03T13:29:15.171Z,14.70
2019-03-03T13:31:49.159Z,14.70
2019-03-03T13:34:26.457Z,14.60
2019-03-03T13:37:10.987Z,14.60
2019-03-03T13:39:44.867Z,14.60
2019-03-03T13:42:13.233Z,14.60
2019-03-03T13:44:39.752Z,14.60
2019-03-03T13:47:06.316Z,14.60
2019-03-03T13:49:32.869Z,14.70
2019-03-03T13:51:59.386Z,14.80
2019-03-03T13:54:25.953Z,14.80
2019-03-03T13:56:52.508Z,14.50
2019-03-03T13:59:19.064Z,14.30
2019-03-03T14:01:45.620Z,14.20
2019-03-03T14:04:12.135Z,14.00
2019-03-03T14:06:38.656Z,13.80
2019-03-03T14:09:06.117Z,13.70
2019-03-03T14:11:32.671Z,13.80
2019-03-03T14:13:59.184Z,14.00
2019-03-03T14:16:25.765Z,14.00
2019-03-03T14:18:52.287Z,14.00
2019-03-03T14:21:18.853Z,14.00
2019-03-03T14:23:45.369Z,14.00
2019-03-03T14:26:12.025Z,14.10
2019-03-03T14:28:38.645Z,14.20
2019-03-03T14:31:05.163Z,14.10
2019-03-03T14:33:31.757Z,14.20
2019-03-03T14:35:58.285Z,14.10
2019-03-03T14:38:24.962Z,14.00
2019-03-03T14:40:51.493Z,13.90
2019-03-03T14:43:18.051Z,13.80
2019-03-03T14:45:44.580Z,13.70
2019-03-03T14:48:11.161Z,13.50
2019-03-03T14:50:37.829Z,13.50
2019-03-03T14:53:04.449Z,13.50
2019-03-03T14:55:31.010Z,13.50
2019-03-03T14:57:57.576Z,13.50
2019-03-03T15:00:26.808Z,13.40
2019-03-03T15:02:53.546Z,13.40
2019-03-03T15:05:20.390Z,13.40
2019-03-03T15:07:47.082Z,13.40
2019-03-03T15:10:15.754Z,13.40
2019-03-03T15:12:42.476Z,13.30
2019-03-03T15:15:13.233Z,13.30
2019-03-03T15:17:40.117Z,13.30
2019-03-03T15:20:06.912Z,13.20
2019-03-03T15:22:33.472Z,13.20
2019-03-03T15:24:59.992Z,13.10
2019-03-03T15:27:26.548Z,13.00
2019-03-03T15:29:53.067Z,13.00
2019-03-03T15:32:19.624Z,12.90
2019-03-03T15:34:46.185Z,12.90
2019-03-03T15:37:14.610Z,12.80
2019-03-03T15:39:41.167Z,12.80
2019-03-03T15:42:07.725Z,12.80
2019-03-03T15:44:34.245Z,12.80
2019-03-03T15:47:00.803Z,12.80
2019-03-03T15:49:27.357Z,12.80
2019-03-03T15:51:53.880Z,12.70
2019-03-03T15:54:20.516Z,12.70
2019-03-03T15:56:47.073Z,12.70
2019-03-03T15:59:13.628Z,12.60
2019-03-03T16:01:40.209Z,12.50
2019-03-03T16:04:06.766Z,12.60
2019-03-03T16:06:33.288Z,12.60
2019-03-03T16:08:59.837Z,12.50
2019-03-03T16:11:26.447Z,12.50
2019-03-03T16:13:52.920Z,12.40
2019-03-03T16:16:19.484Z,12.40
2019-03-03T16:18:46.042Z,12.30
2019-03-03T16:21:12.557Z,12.30
2019-03-03T16:23:39.111Z,12.30
2019-03-03T16:26:05.692Z,12.20
2019-03-03T16:28:32.209Z,12.20
2019-03-03T16:30:58.776Z,12.20
2019-03-03T16:33:25.326Z,12.10
2019-03-03T16:35:51.840Z,12.10
2019-03-03T16:38:18.397Z,12.00
2019-03-03T16:40:46.170Z,11.90
2019-03-03T16:43:12.772Z,11.90
2019-03-03T16:45:39.336Z,11.90
2019-03-03T16:48:05.896Z,11.90
2019-03-03T16:50:32.409Z,12.00
2019-03-03T16:52:58.975Z,12.00
2019-03-03T16:55:25.529Z,11.90
2019-03-03T16:57:52.043Z,11.90
2019-03-03T17:00:22.346Z,11.90
2019-03-03T17:02:48.893Z,11.90
2019-03-03T17:05:16.217Z,11.90
2019-03-03T17:07:42.785Z,11.90
2019-03-03T17:10:09.640Z,11.90
2019-03-03T17:12:36.157Z,12.00
2019-03-03T17:15:03.312Z,11.90
2019-03-03T17:17:29.832Z,11.90
2019-03-03T17:19:56.387Z,11.90
2019-03-03T17:22:22.909Z,11.90
2019-03-03T17:24:49.464Z,11.80
2019-03-03T17:27:16.024Z,11.70
2019-03-03T17:29:42.540Z,11.70
2019-03-03T17:32:09.098Z,11.60
2019-03-03T17:34:35.652Z,11.50
2019-03-03T17:37:02.178Z,11.50
2019-03-03T17:39:28.741Z,11.50
2019-03-03T17:41:55.258Z,11.50
2019-03-03T17:44:21.813Z,11.50
2019-03-03T17:46:48.342Z,11.50
2019-03-03T17:49:14.897Z,11.50
2019-03-03T17:51:41.457Z,11.40
2019-03-03T17:54:07.972Z,11.40
2019-03-03T17:56:34.528Z,11.40
2019-03-03T17:59:01.056Z,11.40
2019-03-03T18:01:27.653Z,11.40
2019-03-03T18:03:54.168Z,11.30
2019-03-03T18:06:20.796Z,11.40
2019-03-03T18:08:47.354Z,11.40
2019-03-03T18:11:13.874Z,11.30
2019-03-03T18:13:40.428Z,11.20
2019-03-03T18:16:06.948Z,11.10
2019-03-03T18:18:33.503Z,11.00
2019-03-03T18:21:00.021Z,10.90
2019-03-03T18:23:26.578Z,10.90
2019-03-03T18:25:53.180Z,10.80
2019-03-03T18:28:19.760Z,10.70
2019-03-03T18:30:46.322Z,10.60
2019-03-03T18:33:13.137Z,10.60
2019-03-03T18:35:39.697Z,10.50
2019-03-03T18:38:06.216Z,10.50
2019-03-03T18:40:32.769Z,10.40
2019-03-03T18:42:59.324Z,10.40
2019-03-03T18:45:25.849Z,10.40
2019-03-03T18:47:54.323Z,10.40
2019-03-03T18:50:24.309Z,10.40
2019-03-03T18:52:50.861Z,10.40
2019-03-03T18:55:17.417Z,10.40
2019-03-03T18:57:44.002Z,10.30
2019-03-03T19:00:15.607Z,10.30
2019-03-03T19:02:42.241Z,10.20
2019-03-03T19:05:09.146Z,10.10
2019-03-03T19:07:35.695Z,10.10
2019-03-03T19:10:02.873Z,10.00
2019-03-03T19:12:29.421Z,10.00
2019-03-03T19:14:56.033Z,9.90
2019-03-03T19:17:22.701Z,9.80
2019-03-03T19:19:49.257Z,9.80
2019-03-03T19:22:15.818Z,9.70
2019-03-03T19:24:42.385Z,9.70
2019-03-03T19:27:08.905Z,9.70
2019-03-03T19:29:35.504Z,9.60
2019-03-03T19:32:03.049Z,9.60
2019-03-03T19:34:29.624Z,9.50
2019-03-03T19:36:56.155Z,9.50
2019-03-03T19:39:22.710Z,9.50
2019-03-03T19:41:49.229Z,9.40
2019-03-03T19:44:15.841Z,9.40
2019-03-03T19:46:42.453Z,9.40
2019-03-03T19:49:11.831Z,9.40
2019-03-03T19:51:38.389Z,9.40
2019-03-03T19:54:04.922Z,9.30
2019-03-03T19:56:31.517Z,9.30
2019-03-03T19:58:58.080Z,9.20
2019-03-03T20:01:24.701Z,9.10
2019-03-03T20:03:51.262Z,9.10
2019-03-03T20:06:17.776Z,9.10
2019-03-03T20:08:44.381Z,9.10
2019-03-03T20:11:10.876Z,9.00
2019-03-03T20:13:37.459Z,8.90
2019-03-03T20:16:04.010Z,8.80
2019-03-03T20:18:30.593Z,8.80
2019-03-03T20:20:57.158Z,8.70
2019-03-03T20:23:23.720Z,8.70
2019-03-03T20:25:50.239Z,8.70
2019-03-03T20:28:17.202Z,8.60
2019-03-03T20:30:44.674Z,8.50
2019-03-03T20:33:11.192Z,8.40
2019-03-03T20:35:37.807Z,8.40
2019-03-03T20:38:04.365Z,8.30
2019-03-03T20:40:30.893Z,8.20
2019-03-03T20:42:57.465Z,8.10
2019-03-03T20:45:27.982Z,8.10
2019-03-03T20:47:54.495Z,8.00
2019-03-03T20:50:21.225Z,8.00
2019-03-03T20:52:47.969Z,7.90
2019-03-03T20:55:16.333Z,7.90
2019-03-03T20:57:42.885Z,7.90
2019-03-03T21:00:14.233Z,7.90
2019-03-03T21:02:40.788Z,7.90
2019-03-03T21:05:07.711Z,7.90
2019-03-03T21:07:34.264Z,7.90
2019-03-03T21:10:01.087Z,8.00
2019-03-03T21:12:27.644Z,8.00
2019-03-03T21:14:54.212Z,8.10
2019-03-03T21:17:20.729Z,8.10
2019-03-03T21:19:47.283Z,8.10
2019-03-03T21:22:13.805Z,8.10
2019-03-03T21:24:40.373Z,8.20
2019-03-03T21:27:06.888Z,8.20
2019-03-03T21:29:33.447Z,8.30
2019-03-03T21:32:00.005Z,8.30
2019-03-03T21:34:26.530Z,8.40
2019-03-03T21:36:53.087Z,8.40
2019-03-03T21:39:19.605Z,8.40
2019-03-03T21:41:46.167Z,8.40
2019-03-03T21:44:12.724Z,8.40
2019-03-03T21:46:39.281Z,8.40
2019-03-03T21:49:05.943Z,8.30
2019-03-03T21:51:32.529Z,8.30
2019-03-03T21:53:59.085Z,8.40
2019-03-03T21:56:25.645Z,8.40
2019-03-03T21:58:52.204Z,8.40
2019-03-03T22:01:18.760Z,8.40
2019-03-03T22:03:45.346Z,8.40
2019-03-03T22:06:11.865Z,8.40
2019-03-03T22:08:38.421Z,8.40
2019-03-03T22:11:04.977Z,8.50
2019-03-03T22:13:31.502Z,8.50
2019-03-03T22:15:58.062Z,8.60
2019-03-03T22:18:24.621Z,8.70
2019-03-03T22:20:51.141Z,8.70
2019-03-03T22:23:18.216Z,8.70
2019-03-03T22:25:45.628Z,8.60
2019-03-03T22:28:12.135Z,8.60
2019-03-03T22:30:38.764Z,8.50
2019-03-03T22:33:05.389Z,8.60
2019-03-03T22:35:31.909Z,8.60
2019-03-03T22:37:58.505Z,8.60
2019-03-03T22:40:25.058Z,8.60
2019-03-03T22:42:51.580Z,8.50
2019-03-03T22:45:18.232Z,8.60
2019-03-03T22:47:44.798Z,8.60
2019-03-03T22:50:14.929Z,8.50
2019-03-03T22:52:41.488Z,8.50
2019-03-03T22:55:09.151Z,8.50
2019-03-03T22:57:35.663Z,8.60
2019-03-03T23:00:04.056Z,8.60
2019-03-03T23:02:30.616Z,8.70
2019-03-03T23:05:02.304Z,8.60
2019-03-03T23:07:30.656Z,8.60
2019-03-03T23:10:01.788Z,8.60
2019-03-03T23:12:36.185Z,8.50
2019-03-03T23:15:21.192Z,8.60
2019-03-03T23:17:58.693Z,8.60
2019-03-03T23:20:27.049Z,8.60
2019-03-03T23:22:55.356Z,8.50
2019-03-03T23:25:40.113Z,8.60
2019-03-03T23:28:07.460Z,8.70
2019-03-03T23:30:34.096Z,8.70
2019-03-03T23:33:00.643Z,8.70
2019-03-03T23:35:27.204Z,8.70
2019-03-03T23:37:53.725Z,8.70
2019-03-03T23:40:20.272Z,8.70
2019-03-03T23:42:46.832Z,8.70
2019-03-03T23:45:13.348Z,8.70
2019-03-03T23:47:40.802Z,8.70
2019-03-03T23:50:08.056Z,8.70
2019-03-03T23:52:34.573Z,8.80
2019-03-03T23:55:01.128Z,8.80
2019-03-03T23:57:27.685Z,8.80
2019-03-03T23:59:54.257Z,8.90
